createdAt,value
2019-02-11T00:03:17.399Z,60.50
2019-02-11T00:07:22.420Z,60.10
2019-02-11T00:11:27.436Z,59.90
2019-02-11T00:15:32.464Z,59.80
2019-02-11T00:19:37.495Z,60.20
2019-02-11T00:23:42.515Z,60.10
2019-02-11T00:27:48.726Z,61.00
2019-02-11T00:31:53.841Z,60.90
2019-02-11T00:35:58.877Z,60.90
2019-02-11T00:40:05.105Z,61.30
2019-02-11T00:44:10.195Z,61.20
2019-02-11T00:48:15.247Z,61.50
2019-02-11T00:52:20.268Z,61.60
2019-02-11T00:56:25.323Z,62.00
2019-02-11T01:00:30.368Z,63.30
2019-02-11T01:04:35.394Z,63.90
2019-02-11T01:08:40.416Z,64.80
2019-02-11T01:12:45.439Z,64.90
2019-02-11T01:16:50.472Z,64.90
2019-02-11T01:20:55.492Z,65.30
2019-02-11T01:25:00.544Z,65.30
2019-02-11T01:29:06.391Z,66.30
2019-02-11T01:33:11.443Z,66.90
2019-02-11T01:37:16.485Z,67.20
2019-02-11T01:41:21.578Z,68.00
2019-02-11T01:45:26.591Z,68.30
2019-02-11T01:49:31.623Z,68.70
2019-02-11T01:53:36.657Z,68.90
2019-02-11T01:57:41.687Z,69.20
2019-02-11T02:01:46.739Z,69.70
2019-02-11T02:05:51.781Z,69.30
2019-02-11T02:09:56.813Z,69.50
2019-02-11T02:14:01.832Z,69.50
2019-02-11T02:18:06.856Z,69.90
2019-02-11T02:22:11.877Z,69.70
2019-02-11T02:26:16.922Z,70.20
2019-02-11T02:30:22.735Z,70.00
2019-02-11T02:34:27.815Z,70.10
2019-02-11T02:38:32.898Z,70.60
2019-02-11T02:42:37.921Z,70.50
2019-02-11T02:46:42.943Z,70.00
2019-02-11T02:50:47.969Z,70.20
2019-02-11T02:54:54.135Z,70.00
2019-02-11T02:58:59.156Z,70.00
2019-02-11T03:03:04.184Z,70.00
2019-02-11T03:07:09.401Z,69.80
2019-02-11T03:11:14.491Z,70.40
2019-02-11T03:15:19.528Z,69.80
2019-02-11T03:19:24.593Z,69.60
2019-02-11T03:23:29.621Z,69.60
2019-02-11T03:27:34.664Z,69.50
2019-02-11T03:31:40.631Z,69.30
2019-02-11T03:35:45.653Z,69.60
2019-02-11T03:39:50.676Z,69.80
2019-02-11T03:43:57.536Z,69.50
2019-02-11T03:48:02.648Z,69.10
2019-02-11T03:52:07.672Z,69.00
2019-02-11T03:56:12.824Z,69.90
2019-02-11T04:00:17.852Z,69.70
2019-02-11T04:04:22.898Z,69.80
2019-02-11T04:08:27.939Z,69.40
2019-02-11T04:12:32.956Z,69.30
2019-02-11T04:16:37.965Z,68.70
2019-02-11T04:20:43.004Z,68.10
2019-02-11T04:24:48.025Z,68.30
2019-02-11T04:28:53.058Z,67.90
2019-02-11T04:33:00.043Z,68.60
2019-02-11T04:37:05.067Z,68.00
2019-02-11T04:41:10.092Z,67.70
2019-02-11T04:45:15.117Z,67.50
2019-02-11T04:49:20.153Z,68.20
2019-02-11T04:53:25.224Z,68.20
2019-02-11T04:57:30.270Z,68.10
2019-02-11T05:01:35.329Z,67.80
2019-02-11T05:05:40.333Z,67.10
2019-02-11T05:09:45.350Z,67.00
2019-02-11T05:13:50.364Z,66.80
2019-02-11T05:17:55.417Z,66.20
2019-02-11T05:22:00.443Z,66.00
2019-02-11T05:26:05.476Z,66.80
2019-02-11T05:30:10.490Z,66.70
2019-02-11T05:34:17.424Z,66.70
2019-02-11T05:38:22.754Z,67.10
2019-02-11T05:42:27.777Z,67.10
2019-02-11T05:46:32.804Z,66.70
2019-02-11T05:50:37.850Z,66.60
2019-02-11T05:54:42.882Z,66.40
2019-02-11T05:58:47.921Z,66.40
2019-02-11T06:02:52.953Z,66.60
2019-02-11T06:06:58.027Z,66.60
2019-02-11T06:11:03.056Z,66.70
2019-02-11T06:15:08.100Z,66.60
2019-02-11T06:19:13.139Z,65.90
2019-02-11T06:23:18.172Z,66.30
2019-02-11T06:27:23.180Z,66.20
2019-02-11T06:31:28.412Z,66.40
2019-02-11T06:35:35.785Z,66.00
2019-02-11T06:39:40.798Z,65.20
2019-02-11T06:43:45.824Z,65.60
2019-02-11T06:47:50.855Z,65.90
2019-02-11T06:51:55.892Z,65.70
2019-02-11T06:56:00.914Z,65.40
2019-02-11T07:00:12.171Z,65.00
2019-02-11T07:04:17.213Z,64.60
2019-02-11T07:08:22.232Z,64.10
2019-02-11T07:12:30.238Z,63.80
2019-02-11T07:16:35.274Z,63.90
2019-02-11T07:20:40.327Z,63.40
2019-02-11T07:24:45.378Z,63.70
2019-02-11T07:28:50.414Z,63.20
2019-02-11T07:32:55.450Z,63.40
2019-02-11T07:37:02.524Z,63.30
2019-02-11T07:41:07.563Z,62.80
2019-02-11T07:45:17.433Z,62.70
2019-02-11T07:49:22.477Z,62.30
2019-02-11T07:53:27.529Z,62.40
2019-02-11T07:57:32.555Z,62.30
2019-02-11T08:01:37.618Z,62.20
2019-02-11T08:05:42.640Z,62.00
2019-02-11T08:09:47.827Z,61.70
2019-02-11T08:13:52.849Z,61.40
2019-02-11T08:17:58.669Z,61.30
2019-02-11T08:22:03.683Z,61.00
2019-02-11T08:26:08.720Z,61.10
2019-02-11T08:30:13.754Z,61.20
2019-02-11T08:34:18.790Z,61.00
2019-02-11T08:38:25.470Z,60.70
2019-02-11T08:42:30.489Z,60.50
2019-02-11T08:46:35.525Z,60.50
2019-02-11T08:50:40.572Z,61.10
2019-02-11T08:54:45.719Z,59.80
2019-02-11T08:58:50.779Z,59.40
2019-02-11T09:02:55.811Z,59.40
2019-02-11T09:07:00.845Z,58.70
2019-02-11T09:11:05.875Z,58.00
2019-02-11T09:15:11.927Z,58.10
2019-02-11T09:19:16.948Z,57.90
2019-02-11T09:23:22.744Z,58.10
2019-02-11T09:27:27.781Z,58.60
2019-02-11T09:31:32.827Z,58.20
2019-02-11T09:35:37.882Z,57.80
2019-02-11T09:39:44.841Z,57.20
2019-02-11T09:43:51.088Z,56.70
2019-02-11T09:47:56.117Z,55.30
2019-02-11T09:52:02.541Z,56.00
2019-02-11T09:56:08.156Z,56.10
2019-02-11T10:00:13.480Z,56.30
2019-02-11T10:04:18.504Z,55.90
2019-02-11T10:08:23.825Z,56.70
2019-02-11T10:12:28.876Z,56.40
2019-02-11T10:16:33.893Z,56.90
2019-02-11T10:20:39.158Z,57.00
2019-02-11T10:24:44.485Z,57.30
2019-02-11T10:28:49.576Z,56.60
2019-02-11T10:32:54.593Z,56.60
2019-02-11T10:37:00.233Z,55.80
2019-02-11T10:41:06.571Z,54.80
2019-02-11T10:45:12.965Z,55.10
2019-02-11T10:49:17.994Z,55.40
2019-02-11T10:53:23.031Z,54.80
2019-02-11T10:57:28.053Z,54.60
2019-02-11T11:01:33.080Z,53.90
2019-02-11T11:05:38.087Z,52.10
2019-02-11T11:09:43.114Z,52.70
2019-02-11T11:13:48.207Z,53.00
2019-02-11T11:17:53.246Z,54.00
2019-02-11T11:21:58.300Z,54.00
2019-02-11T11:26:03.349Z,54.80
2019-02-11T11:30:11.524Z,54.70
2019-02-11T11:34:16.816Z,54.40
2019-02-11T11:38:23.068Z,53.50
2019-02-11T11:42:29.587Z,53.10
2019-02-11T11:46:45.615Z,52.90
2019-02-11T11:50:42.018Z,52.30
2019-02-11T11:54:47.053Z,51.30
2019-02-11T11:58:52.069Z,51.30
2019-02-11T12:03:02.732Z,51.00
2019-02-11T12:07:04.279Z,51.20
2019-02-11T12:11:09.296Z,51.10
2019-02-11T12:15:17.048Z,47.70
2019-02-11T12:19:22.170Z,48.10
2019-02-11T12:23:27.202Z,47.50
2019-02-11T12:27:32.244Z,47.80
2019-02-11T12:31:37.263Z,48.50
2019-02-11T12:35:42.308Z,49.00
2019-02-11T12:39:47.334Z,48.20
2019-02-11T12:43:53.413Z,48.90
2019-02-11T12:47:58.513Z,49.10
2019-02-11T12:52:03.794Z,49.40
2019-02-11T12:56:08.930Z,49.00
2019-02-11T13:00:18.968Z,47.70
2019-02-11T13:04:24.023Z,48.40
2019-02-11T13:08:29.060Z,49.30
2019-02-11T13:12:34.096Z,48.70
2019-02-11T13:16:39.120Z,48.40
2019-02-11T13:20:44.144Z,48.60
2019-02-11T13:24:49.192Z,47.30
2019-02-11T13:28:54.258Z,46.40
2019-02-11T13:32:59.372Z,46.50
2019-02-11T13:37:04.390Z,46.10
2019-02-11T13:41:09.430Z,45.90
2019-02-11T13:45:18.839Z,46.20
2019-02-11T13:49:23.842Z,45.00
2019-02-11T13:53:29.099Z,46.50
2019-02-11T13:57:34.448Z,46.90
2019-02-11T14:01:39.483Z,47.80
2019-02-11T14:05:44.865Z,47.80
2019-02-11T14:09:49.892Z,48.00
2019-02-11T14:14:02.695Z,48.70
2019-02-11T14:18:12.985Z,48.00
2019-02-11T14:22:16.177Z,47.80
2019-02-11T14:26:21.219Z,47.40
2019-02-11T14:30:26.695Z,48.20
2019-02-11T14:34:31.736Z,48.10
2019-02-11T14:38:36.829Z,48.60
2019-02-11T14:42:41.962Z,49.00
2019-02-11T14:46:47.594Z,49.40
2019-02-11T14:50:52.805Z,49.20
2019-02-11T14:54:57.849Z,49.30
2019-02-11T14:59:02.894Z,48.60
2019-02-11T15:03:07.944Z,49.50
2019-02-11T15:07:12.982Z,48.90
2019-02-11T15:11:18.012Z,48.60
2019-02-11T15:15:23.291Z,49.00
2019-02-11T15:19:28.332Z,48.60
2019-02-11T15:23:33.355Z,48.80
2019-02-11T15:27:38.389Z,49.90
2019-02-11T15:31:43.419Z,49.80
2019-02-11T15:35:48.512Z,49.70
2019-02-11T15:39:53.618Z,49.60
2019-02-11T15:43:58.649Z,50.20
2019-02-11T15:48:04.600Z,50.90
2019-02-11T15:52:09.730Z,53.00
2019-02-11T15:56:14.789Z,55.90
2019-02-11T16:00:21.248Z,58.00
2019-02-11T16:04:26.386Z,58.90
2019-02-11T16:08:31.564Z,59.20
2019-02-11T16:12:36.705Z,59.50
2019-02-11T16:16:41.744Z,59.20
2019-02-11T16:20:46.827Z,58.60
2019-02-11T16:24:51.941Z,58.90
2019-02-11T16:28:57.081Z,58.20
2019-02-11T16:33:02.159Z,57.80
2019-02-11T16:37:07.275Z,57.20
2019-02-11T16:41:12.298Z,57.00
2019-02-11T16:45:17.378Z,57.00
2019-02-11T16:49:23.919Z,57.60
2019-02-11T16:53:30.088Z,58.60
2019-02-11T16:57:35.208Z,60.50
2019-02-11T17:01:40.362Z,61.50
2019-02-11T17:05:45.393Z,62.90
2019-02-11T17:09:50.433Z,64.40
2019-02-11T17:13:55.711Z,64.60
2019-02-11T17:18:03.984Z,64.60
2019-02-11T17:22:11.574Z,63.70
2019-02-11T17:26:16.940Z,63.60
2019-02-11T17:30:26.234Z,63.50
2019-02-11T17:34:34.343Z,63.60
2019-02-11T17:38:40.809Z,63.90
2019-02-11T17:42:46.931Z,63.70
2019-02-11T17:46:52.274Z,63.60
2019-02-11T17:50:58.853Z,63.70
2019-02-11T17:55:09.546Z,63.70
2019-02-11T17:59:16.964Z,63.20
2019-02-11T18:03:22.366Z,63.00
2019-02-11T18:07:30.382Z,62.90
2019-02-11T18:11:37.588Z,63.10
2019-02-11T18:15:43.118Z,62.70
2019-02-11T18:19:48.435Z,62.90
2019-02-11T18:23:53.575Z,63.30
2019-02-11T18:28:03.058Z,63.40
2019-02-11T18:32:11.239Z,63.60
2019-02-11T18:36:16.365Z,63.30
2019-02-11T18:40:21.693Z,63.60
2019-02-11T18:44:26.877Z,62.00
2019-02-11T18:48:33.011Z,61.20
2019-02-11T18:53:02.454Z,61.00
2019-02-11T18:57:08.615Z,60.40
2019-02-11T19:01:13.717Z,59.70
2019-02-11T19:05:17.053Z,59.80
2019-02-11T19:09:20.152Z,60.20
2019-02-11T19:13:24.442Z,60.40
2019-02-11T19:17:27.667Z,60.70
2019-02-11T19:21:34.356Z,61.00
2019-02-11T19:25:47.453Z,61.20
2019-02-11T19:29:53.137Z,61.80
2019-02-11T19:33:56.621Z,61.80
2019-02-11T19:37:59.645Z,61.50
2019-02-11T19:42:02.745Z,61.60
2019-02-11T19:46:07.192Z,61.80
2019-02-11T19:50:12.458Z,62.20
2019-02-11T19:54:16.479Z,62.30
2019-02-11T19:58:19.687Z,62.30
2019-02-11T20:02:23.467Z,62.70
2019-02-11T20:06:29.733Z,63.00
2019-02-11T20:10:33.024Z,63.30
2019-02-11T20:14:39.168Z,63.30
2019-02-11T20:18:42.262Z,63.20
2019-02-11T20:22:45.744Z,63.40
2019-02-11T20:26:50.981Z,63.40
2019-02-11T20:30:57.036Z,63.40
2019-02-11T20:35:00.665Z,63.60
2019-02-11T20:39:06.906Z,63.30
2019-02-11T20:43:10.348Z,63.20
2019-02-11T20:47:13.431Z,63.30
2019-02-11T20:51:16.514Z,63.70
2019-02-11T20:55:20.130Z,63.50
2019-02-11T20:59:23.228Z,63.30
2019-02-11T21:03:26.372Z,63.10
2019-02-11T21:07:29.472Z,62.70
2019-02-11T21:11:32.468Z,62.60
2019-02-11T21:15:35.493Z,62.50
2019-02-11T21:19:38.528Z,62.00
2019-02-11T21:23:41.616Z,61.70
2019-02-11T21:27:44.698Z,61.90
2019-02-11T21:31:47.803Z,61.80
2019-02-11T21:35:50.793Z,62.00
2019-02-11T21:39:53.785Z,62.40
2019-02-11T21:43:56.795Z,63.00
2019-02-11T21:47:59.897Z,63.50
2019-02-11T21:52:02.990Z,62.50
2019-02-11T21:56:07.464Z,62.70
2019-02-11T22:00:20.220Z,63.10
2019-02-11T22:04:23.334Z,63.40
2019-02-11T22:08:26.334Z,63.80
2019-02-11T22:12:29.429Z,64.00
2019-02-11T22:16:32.442Z,64.10
2019-02-11T22:20:35.519Z,64.40
2019-02-11T22:24:38.531Z,64.90
2019-02-11T22:28:41.607Z,64.80
2019-02-11T22:32:44.607Z,64.90
2019-02-11T22:36:47.607Z,64.60
2019-02-11T22:40:50.626Z,64.30
2019-02-11T22:44:53.627Z,64.10
2019-02-11T22:48:56.616Z,64.10
2019-02-11T22:52:59.715Z,63.50
2019-02-11T22:57:03.865Z,63.50
2019-02-11T23:01:07.299Z,63.30
2019-02-11T23:05:10.304Z,63.10
2019-02-11T23:09:13.305Z,62.90
2019-02-11T23:13:16.301Z,63.20
2019-02-11T23:17:19.425Z,63.50
2019-02-11T23:21:22.958Z,64.00
2019-02-11T23:25:26.108Z,63.90
2019-02-11T23:29:29.106Z,64.00
2019-02-11T23:33:32.200Z,64.10
2019-02-11T23:37:35.209Z,64.20
2019-02-11T23:41:38.291Z,64.50
2019-02-11T23:45:41.399Z,64.90
2019-02-11T23:49:44.410Z,65.80
2019-02-11T23:53:47.482Z,66.40
2019-02-11T23:57:51.988Z,66.10
